createdAt,value
2023-05-14T00:01:23.779Z,71.27
2023-05-14T00:03:50.437Z,70.54
2023-05-14T00:06:16.901Z,72.14
2023-05-14T00:08:43.302Z,71.87
2023-05-14T00:11:09.698Z,72.51
2023-05-14T00:13:36.521Z,72.44
2023-05-14T00:16:02.996Z,72.98
2023-05-14T00:18:29.548Z,72.61
2023-05-14T00:20:56.136Z,72.65
2023-05-14T00:23:22.778Z,72.65
2023-05-14T00:25:49.921Z,73.64
2023-05-14T00:28:16.528Z,73.20
2023-05-14T00:30:42.933Z,73.26
2023-05-14T00:33:09.455Z,73.49
2023-05-14T00:35:35.996Z,73.61
2023-05-14T00:38:03.788Z,74.58
2023-05-14T00:40:30.639Z,73.35
2023-05-14T00:42:57.135Z,74.28
2023-05-14T00:45:23.605Z,73.62
2023-05-14T00:47:50.250Z,73.95
2023-05-14T00:50:17.910Z,73.83
2023-05-14T00:52:44.577Z,74.42
2023-05-14T00:55:16.259Z,74.96
2023-05-14T00:57:42.996Z,74.40
2023-05-14T01:00:09.972Z,73.86
2023-05-14T01:02:36.589Z,74.94
2023-05-14T01:05:03.661Z,74.23
2023-05-14T01:07:39.115Z,75.02
2023-05-14T01:10:15.028Z,75.14
2023-05-14T01:13:08.239Z,74.97
2023-05-14T01:15:37.521Z,75.41
2023-05-14T01:18:09.471Z,75.36
2023-05-14T01:20:36.589Z,75.43
2023-05-14T01:23:03.551Z,76.22
2023-05-14T01:25:31.406Z,76.27
2023-05-14T01:28:09.084Z,76.44
2023-05-14T01:30:37.548Z,76.76
2023-05-14T01:33:10.032Z,75.64
2023-05-14T01:35:37.197Z,75.98
2023-05-14T01:38:06.735Z,76.39
2023-05-14T01:40:34.546Z,76.44
2023-05-14T01:43:01.853Z,76.79
2023-05-14T01:45:28.264Z,77.09
2023-05-14T01:47:54.700Z,76.28
2023-05-14T01:50:21.430Z,76.04
2023-05-14T01:52:53.369Z,76.66
2023-05-14T01:55:19.864Z,76.35
2023-05-14T01:57:46.234Z,76.18
2023-05-14T02:00:12.986Z,77.09
2023-05-14T02:02:39.383Z,77.11
2023-05-14T02:05:07.032Z,77.42
2023-05-14T02:07:33.706Z,76.94
2023-05-14T02:10:00.135Z,76.41
2023-05-14T02:12:26.660Z,77.12
2023-05-14T02:14:53.085Z,76.79
2023-05-14T02:17:20.027Z,76.86
2023-05-14T02:19:46.543Z,76.74
2023-05-14T02:22:13.367Z,76.96
2023-05-14T02:24:39.754Z,77.43
2023-05-14T02:27:06.289Z,77.15
2023-05-14T02:29:32.782Z,77.87
2023-05-14T02:31:59.192Z,78.04
2023-05-14T02:34:25.970Z,78.58
2023-05-14T02:36:52.371Z,77.11
2023-05-14T02:39:18.737Z,77.41
2023-05-14T02:41:45.121Z,77.56
2023-05-14T02:44:11.485Z,77.92
2023-05-14T02:46:37.931Z,77.86
2023-05-14T02:49:04.334Z,77.46
2023-05-14T02:51:30.783Z,78.39
2023-05-14T02:53:57.210Z,78.47
2023-05-14T02:56:23.616Z,78.32
2023-05-14T02:58:50.042Z,78.46
2023-05-14T03:01:16.805Z,78.96
2023-05-14T03:03:43.715Z,77.75
2023-05-14T03:06:10.458Z,79.29
2023-05-14T03:08:36.854Z,78.75
2023-05-14T03:11:03.484Z,78.04
2023-05-14T03:13:29.885Z,79.18
2023-05-14T03:15:56.816Z,78.81
2023-05-14T03:18:23.209Z,78.36
2023-05-14T03:20:49.548Z,79.01
2023-05-14T03:23:15.904Z,78.94
2023-05-14T03:25:42.294Z,79.26
2023-05-14T03:28:08.828Z,80.03
2023-05-14T03:30:35.410Z,79.26
2023-05-14T03:33:01.899Z,79.45
2023-05-14T03:35:28.300Z,79.19
2023-05-14T03:37:54.702Z,80.11
2023-05-14T03:40:21.446Z,80.01
2023-05-14T03:42:48.168Z,80.18
2023-05-14T03:45:14.553Z,79.95
2023-05-14T03:47:41.399Z,79.03
2023-05-14T03:50:08.780Z,80.05
2023-05-14T03:52:35.436Z,79.33
2023-05-14T03:55:01.905Z,79.99
2023-05-14T03:57:28.594Z,79.33
2023-05-14T03:59:54.940Z,80.04
2023-05-14T04:02:21.418Z,80.03
2023-05-14T04:04:47.990Z,79.78
2023-05-14T04:07:14.427Z,79.62
2023-05-14T04:09:40.851Z,79.79
2023-05-14T04:12:07.728Z,80.20
2023-05-14T04:14:34.137Z,79.90
2023-05-14T04:17:00.667Z,80.10
2023-05-14T04:19:27.053Z,80.17
2023-05-14T04:21:53.427Z,80.30
2023-05-14T04:24:19.812Z,79.99
2023-05-14T04:26:46.296Z,80.95
2023-05-14T04:29:12.710Z,79.96
2023-05-14T04:31:39.683Z,80.33
2023-05-14T04:34:06.091Z,79.97
2023-05-14T04:36:32.557Z,80.76
2023-05-14T04:38:58.921Z,80.03
2023-05-14T04:41:25.400Z,80.03
2023-05-14T04:43:55.345Z,80.32
2023-05-14T04:46:22.253Z,80.18
2023-05-14T04:48:49.038Z,80.07
2023-05-14T04:51:15.429Z,80.21
2023-05-14T04:53:41.798Z,79.37
2023-05-14T04:56:08.222Z,79.58
2023-05-14T04:58:35.260Z,79.12
2023-05-14T05:01:03.218Z,79.59
2023-05-14T05:03:29.820Z,79.49
2023-05-14T05:05:56.312Z,79.81
2023-05-14T05:08:22.962Z,79.45
2023-05-14T05:10:49.404Z,78.71
2023-05-14T05:13:16.965Z,78.50
2023-05-14T05:15:43.736Z,78.64
2023-05-14T05:18:10.204Z,79.33
2023-05-14T05:20:36.553Z,78.30
2023-05-14T05:23:02.884Z,78.96
2023-05-14T05:25:29.216Z,78.81
2023-05-14T05:27:55.641Z,79.33
2023-05-14T05:30:22.218Z,78.82
2023-05-14T05:32:48.960Z,78.86
2023-05-14T05:35:15.369Z,78.83
2023-05-14T05:37:42.900Z,77.91
2023-05-14T05:40:10.271Z,78.75
2023-05-14T05:42:36.597Z,78.19
2023-05-14T05:45:03.128Z,78.61
2023-05-14T05:47:30.126Z,78.64
2023-05-14T05:49:56.857Z,78.37
2023-05-14T05:52:23.431Z,79.15
2023-05-14T05:54:49.927Z,78.70
2023-05-14T05:57:16.321Z,78.61
2023-05-14T05:59:43.348Z,78.75
2023-05-14T06:02:09.718Z,79.26
2023-05-14T06:04:36.128Z,78.56
2023-05-14T06:07:02.588Z,78.64
2023-05-14T06:09:28.968Z,79.13
2023-05-14T06:11:55.424Z,78.99
2023-05-14T06:14:21.803Z,78.41
2023-05-14T06:16:48.163Z,79.09
2023-05-14T06:19:14.662Z,78.40
2023-05-14T06:21:41.070Z,79.02
2023-05-14T06:24:07.656Z,79.29
2023-05-14T06:26:34.074Z,78.28
2023-05-14T06:29:00.436Z,78.18
2023-05-14T06:31:26.880Z,77.97
2023-05-14T06:33:53.255Z,77.66
2023-05-14T06:36:19.656Z,77.49
2023-05-14T06:38:46.092Z,76.65
2023-05-14T06:41:12.530Z,76.23
2023-05-14T06:43:38.938Z,76.37
2023-05-14T06:46:05.389Z,76.82
2023-05-14T06:48:31.864Z,76.05
2023-05-14T06:50:58.317Z,76.04
2023-05-14T06:53:24.750Z,74.75
2023-05-14T06:55:51.261Z,74.12
2023-05-14T06:58:17.803Z,74.63
2023-05-14T07:00:44.140Z,74.09
2023-05-14T07:03:10.526Z,73.59
2023-05-14T07:05:36.902Z,73.67
2023-05-14T07:08:03.372Z,73.41
2023-05-14T07:10:30.842Z,73.50
2023-05-14T07:12:57.253Z,74.19
2023-05-14T07:15:23.625Z,73.66
2023-05-14T07:17:50.135Z,73.45
2023-05-14T07:20:16.600Z,72.48
2023-05-14T07:22:42.934Z,72.93
2023-05-14T07:25:09.472Z,72.82
2023-05-14T07:27:35.904Z,72.73
2023-05-14T07:30:02.387Z,72.92
2023-05-14T07:32:28.804Z,72.11
2023-05-14T07:34:55.929Z,71.84
2023-05-14T07:37:24.047Z,71.71
2023-05-14T07:39:51.028Z,72.30
2023-05-14T07:42:31.814Z,71.67
2023-05-14T07:45:02.117Z,71.82
2023-05-14T07:47:29.418Z,72.63
2023-05-14T07:49:56.849Z,72.32
2023-05-14T07:52:23.883Z,72.63
2023-05-14T07:54:51.928Z,72.18
2023-05-14T07:57:19.381Z,72.77
2023-05-14T07:59:46.298Z,72.70
2023-05-14T08:02:12.946Z,71.99
2023-05-14T08:04:39.879Z,72.65
2023-05-14T08:07:08.385Z,70.72
2023-05-14T08:09:34.897Z,71.29
2023-05-14T08:12:01.455Z,70.04
2023-05-14T08:14:28.454Z,70.42
2023-05-14T08:16:54.886Z,71.28
2023-05-14T08:19:21.718Z,71.03
2023-05-14T08:21:48.207Z,71.12
2023-05-14T08:24:15.054Z,70.42
2023-05-14T08:26:41.948Z,71.76
2023-05-14T08:29:10.498Z,71.19
2023-05-14T08:31:37.334Z,68.45
2023-05-14T08:34:03.735Z,69.17
2023-05-14T08:36:30.214Z,68.67
2023-05-14T08:38:56.561Z,71.03
2023-05-14T08:41:23.321Z,69.33
2023-05-14T08:43:58.258Z,68.74
2023-05-14T08:46:25.205Z,67.91
2023-05-14T08:48:59.606Z,68.25
2023-05-14T08:51:27.633Z,67.80
2023-05-14T08:53:54.228Z,67.33
2023-05-14T08:56:21.564Z,68.05
2023-05-14T08:58:48.004Z,67.42
2023-05-14T09:01:14.531Z,67.21
2023-05-14T09:03:41.649Z,66.68
2023-05-14T09:06:08.825Z,66.90
2023-05-14T09:08:36.293Z,66.95
2023-05-14T09:11:02.758Z,64.87
2023-05-14T09:13:29.186Z,67.31
2023-05-14T09:15:56.508Z,67.03
2023-05-14T09:18:23.041Z,66.65
2023-05-14T09:20:49.465Z,65.08
2023-05-14T09:23:15.791Z,66.01
2023-05-14T09:25:42.400Z,65.24
2023-05-14T09:28:09.561Z,65.31
2023-05-14T09:30:36.988Z,63.24
2023-05-14T09:33:04.242Z,65.40
2023-05-14T09:35:32.288Z,64.24
2023-05-14T09:37:58.687Z,64.37
2023-05-14T09:40:25.398Z,65.52
2023-05-14T09:42:52.066Z,62.74
2023-05-14T09:45:18.535Z,64.05
2023-05-14T09:47:45.408Z,63.77
2023-05-14T09:50:12.350Z,62.88
2023-05-14T09:52:39.142Z,63.07
2023-05-14T09:55:06.304Z,62.76
2023-05-14T09:57:33.457Z,63.72
2023-05-14T09:59:59.816Z,63.24
2023-05-14T10:02:31.238Z,62.59
2023-05-14T10:05:02.464Z,62.77
2023-05-14T10:07:42.535Z,62.91
2023-05-14T10:10:13.633Z,62.51
2023-05-14T10:12:40.721Z,62.20
2023-05-14T10:15:16.729Z,62.73
2023-05-14T10:17:48.550Z,61.61
2023-05-14T10:20:18.534Z,62.25
2023-05-14T10:22:45.401Z,60.87
2023-05-14T10:25:12.177Z,62.16
2023-05-14T10:27:39.362Z,61.31
2023-05-14T10:30:12.299Z,61.88
2023-05-14T10:32:41.625Z,60.82
2023-05-14T10:35:20.368Z,60.12
2023-05-14T10:37:47.005Z,58.45
2023-05-14T10:40:14.077Z,58.77
2023-05-14T10:42:43.260Z,59.58
2023-05-14T10:45:15.137Z,58.31
2023-05-14T10:47:43.593Z,59.21
2023-05-14T10:50:12.733Z,57.14
2023-05-14T10:52:42.517Z,57.36
2023-05-14T10:55:10.735Z,55.68
2023-05-14T10:57:39.410Z,55.39
2023-05-14T11:00:07.758Z,56.35
2023-05-14T11:02:44.882Z,58.39
2023-05-14T11:05:15.515Z,56.80
2023-05-14T11:07:47.146Z,56.34
2023-05-14T11:10:15.656Z,55.74
2023-05-14T11:12:44.890Z,54.63
2023-05-14T11:15:14.099Z,53.81
2023-05-14T11:17:42.043Z,53.07
2023-05-14T11:20:09.385Z,54.84
2023-05-14T11:22:36.792Z,51.28
2023-05-14T11:25:03.698Z,54.46
2023-05-14T11:27:33.265Z,53.11
2023-05-14T11:30:00.941Z,53.86
2023-05-14T11:32:27.868Z,53.03
2023-05-14T11:34:54.302Z,53.22
2023-05-14T11:37:21.019Z,50.25
2023-05-14T11:39:49.310Z,49.69
2023-05-14T11:42:18.499Z,49.86
2023-05-14T11:44:47.520Z,50.24
2023-05-14T11:47:13.920Z,50.41
2023-05-14T11:49:40.365Z,49.23
2023-05-14T11:52:10.940Z,49.47
2023-05-14T11:54:37.825Z,47.50
2023-05-14T11:57:09.800Z,50.67
2023-05-14T11:59:36.857Z,50.59
2023-05-14T12:02:06.869Z,51.22
2023-05-14T12:04:33.511Z,49.54
2023-05-14T12:07:00.418Z,47.40
2023-05-14T12:09:27.002Z,48.35
2023-05-14T12:11:53.449Z,49.93
2023-05-14T12:14:24.298Z,48.77
2023-05-14T12:16:51.494Z,46.91
2023-05-14T12:19:19.375Z,48.63
2023-05-14T12:21:48.047Z,45.28
2023-05-14T12:24:17.668Z,46.43
2023-05-14T12:26:45.737Z,45.15
2023-05-14T12:29:13.816Z,45.94
2023-05-14T12:31:48.618Z,46.31
2023-05-14T12:34:15.928Z,45.45
2023-05-14T12:36:43.377Z,45.03
2023-05-14T12:39:10.821Z,44.12
2023-05-14T12:41:37.182Z,44.35
2023-05-14T12:44:04.982Z,45.69
2023-05-14T12:46:32.909Z,46.48
2023-05-14T12:48:59.397Z,45.11
2023-05-14T12:51:25.898Z,43.58
2023-05-14T12:53:54.091Z,42.76
2023-05-14T12:56:21.258Z,43.68
2023-05-14T12:58:47.756Z,43.43
2023-05-14T13:01:14.173Z,41.96
2023-05-14T13:03:41.074Z,42.82
2023-05-14T13:06:07.914Z,44.51
2023-05-14T13:08:35.354Z,42.99
2023-05-14T13:11:01.725Z,44.45
2023-05-14T13:13:28.201Z,43.51
2023-05-14T13:15:55.476Z,42.25
2023-05-14T13:18:21.895Z,42.83
2023-05-14T13:20:48.416Z,42.89
2023-05-14T13:23:15.046Z,43.05
2023-05-14T13:25:41.462Z,42.67
2023-05-14T13:28:08.558Z,42.14
2023-05-14T13:30:35.008Z,41.98
2023-05-14T13:33:01.675Z,44.44
2023-05-14T13:35:28.165Z,42.89
2023-05-14T13:37:54.553Z,42.43
2023-05-14T13:40:21.176Z,41.41
2023-05-14T13:42:47.583Z,41.45
2023-05-14T13:45:14.014Z,39.61
2023-05-14T13:47:40.553Z,42.77
2023-05-14T13:50:07.461Z,40.71
2023-05-14T13:52:33.899Z,42.65
2023-05-14T13:55:00.285Z,42.04
2023-05-14T13:57:26.931Z,43.35
2023-05-14T13:59:53.364Z,41.83
2023-05-14T14:02:19.810Z,41.47
2023-05-14T14:04:46.232Z,42.46
2023-05-14T14:07:12.584Z,43.28
2023-05-14T14:09:38.981Z,41.30
2023-05-14T14:12:06.025Z,43.67
2023-05-14T14:14:32.549Z,43.21
2023-05-14T14:16:58.884Z,43.99
2023-05-14T14:19:25.443Z,43.21
2023-05-14T14:21:51.889Z,43.69
2023-05-14T14:24:18.319Z,42.37
2023-05-14T14:26:44.661Z,43.37
2023-05-14T14:29:11.086Z,40.57
2023-05-14T14:31:37.506Z,42.19
2023-05-14T14:34:04.041Z,43.51
2023-05-14T14:36:31.592Z,42.63
2023-05-14T14:38:57.966Z,41.92
2023-05-14T14:41:24.500Z,42.59
2023-05-14T14:43:50.938Z,42.43
2023-05-14T14:46:17.310Z,42.55
2023-05-14T14:48:43.960Z,42.60
2023-05-14T14:51:10.431Z,42.96
2023-05-14T14:53:37.230Z,41.36
2023-05-14T14:56:03.886Z,42.68
2023-05-14T14:58:31.012Z,42.13
2023-05-14T15:00:58.231Z,41.89
2023-05-14T15:03:25.570Z,41.90
2023-05-14T15:05:53.592Z,44.80
2023-05-14T15:08:20.854Z,44.61
2023-05-14T15:10:47.295Z,44.80
2023-05-14T15:13:13.708Z,45.92
2023-05-14T15:15:40.165Z,45.67
2023-05-14T15:18:06.698Z,45.15
2023-05-14T15:20:33.208Z,46.41
2023-05-14T15:22:59.629Z,47.42
2023-05-14T15:25:26.717Z,47.60
2023-05-14T15:27:53.458Z,47.50
2023-05-14T15:30:20.213Z,47.02
2023-05-14T15:32:46.824Z,47.32
2023-05-14T15:35:13.378Z,46.96
2023-05-14T15:37:42.968Z,46.66
2023-05-14T15:40:10.453Z,46.29
2023-05-14T15:42:38.433Z,48.11
2023-05-14T15:45:05.597Z,48.13
2023-05-14T15:47:32.328Z,48.04
2023-05-14T15:49:59.237Z,48.43
2023-05-14T15:52:25.873Z,48.65
2023-05-14T15:54:52.417Z,47.17
2023-05-14T15:57:20.006Z,47.28
2023-05-14T15:59:47.294Z,48.32
2023-05-14T16:02:15.081Z,48.46
2023-05-14T16:04:41.542Z,48.15
2023-05-14T16:07:12.131Z,49.02
2023-05-14T16:09:39.159Z,48.61
2023-05-14T16:12:06.676Z,49.21
2023-05-14T16:14:34.611Z,48.38
2023-05-14T16:17:01.990Z,46.42
2023-05-14T16:19:28.612Z,47.06
2023-05-14T16:21:55.068Z,48.62
2023-05-14T16:24:23.620Z,50.09
2023-05-14T16:26:50.033Z,50.49
2023-05-14T16:29:16.422Z,52.33
2023-05-14T16:31:43.300Z,50.37
2023-05-14T16:34:09.762Z,51.74
2023-05-14T16:36:36.393Z,53.21
2023-05-14T16:41:32.330Z,53.60
2023-05-14T16:43:58.760Z,53.83
2023-05-14T16:46:25.401Z,52.52
2023-05-14T16:48:51.778Z,52.22
2023-05-14T16:51:18.175Z,50.92
2023-05-14T16:53:44.624Z,51.19
2023-05-14T16:56:11.062Z,49.87
2023-05-14T16:58:37.529Z,52.61
2023-05-14T17:01:03.998Z,51.69
2023-05-14T17:03:30.594Z,52.56
2023-05-14T17:05:56.957Z,54.24
2023-05-14T17:08:23.309Z,53.49
2023-05-14T17:10:49.719Z,54.28
2023-05-14T17:13:16.228Z,55.10
2023-05-14T17:15:42.653Z,56.07
2023-05-14T17:18:09.176Z,57.51
2023-05-14T17:20:35.601Z,57.50
2023-05-14T17:23:02.018Z,58.51
2023-05-14T17:25:28.414Z,59.03
2023-05-14T17:27:54.873Z,60.68
2023-05-14T17:30:21.353Z,61.06
2023-05-14T17:32:50.288Z,61.13
2023-05-14T17:35:17.433Z,61.15
2023-05-14T17:37:46.758Z,62.13
2023-05-14T17:40:13.347Z,62.09
2023-05-14T17:42:39.764Z,60.82
2023-05-14T17:45:06.892Z,61.03
2023-05-14T17:47:33.286Z,61.02
2023-05-14T17:49:59.806Z,61.03
2023-05-14T17:52:26.238Z,62.26
2023-05-14T17:54:52.586Z,62.65
2023-05-14T17:57:18.998Z,62.17
2023-05-14T17:59:45.324Z,62.94
2023-05-14T18:02:11.705Z,62.40
2023-05-14T18:04:38.096Z,63.80
2023-05-14T18:07:04.727Z,64.02
2023-05-14T18:09:31.083Z,63.81
2023-05-14T18:11:57.597Z,64.22
2023-05-14T18:14:24.061Z,64.22
2023-05-14T18:16:54.453Z,64.56
2023-05-14T18:19:20.875Z,65.17
2023-05-14T18:21:48.094Z,65.19
2023-05-14T18:24:14.591Z,66.28
2023-05-14T18:26:41.045Z,65.08
2023-05-14T18:29:07.394Z,65.75
2023-05-14T18:31:33.917Z,65.55
2023-05-14T18:34:00.398Z,66.69
2023-05-14T18:36:26.856Z,66.63
2023-05-14T18:38:53.333Z,66.87
2023-05-14T18:41:19.775Z,66.39
2023-05-14T18:43:46.210Z,66.57
2023-05-14T18:46:12.700Z,66.56
2023-05-14T18:48:39.261Z,66.43
2023-05-14T18:51:05.668Z,66.64
2023-05-14T18:53:32.064Z,66.84
2023-05-14T18:56:04.342Z,67.42
2023-05-14T18:58:30.766Z,66.60
2023-05-14T19:00:58.929Z,67.18
2023-05-14T19:03:25.937Z,67.73
2023-05-14T19:05:53.662Z,67.63
2023-05-14T19:08:20.131Z,68.27
2023-05-14T19:10:46.684Z,67.31
2023-05-14T19:13:13.149Z,67.57
2023-05-14T19:15:39.627Z,68.50
2023-05-14T19:18:06.282Z,68.81
2023-05-14T19:20:32.721Z,69.29
2023-05-14T19:22:59.064Z,67.67
2023-05-14T19:25:25.678Z,68.00
2023-05-14T19:27:53.546Z,68.54
2023-05-14T19:30:21.531Z,68.67
2023-05-14T19:32:47.964Z,69.48
2023-05-14T19:35:14.455Z,70.05
2023-05-14T19:37:40.984Z,70.12
2023-05-14T19:40:07.942Z,70.15
2023-05-14T19:42:34.443Z,69.85
2023-05-14T19:45:00.912Z,69.55
2023-05-14T19:47:28.474Z,69.31
2023-05-14T19:49:55.014Z,70.08
2023-05-14T19:52:21.424Z,69.68
2023-05-14T19:54:47.827Z,69.00
2023-05-14T19:57:14.172Z,69.24
2023-05-14T19:59:41.377Z,69.29
2023-05-14T20:02:07.890Z,69.93
2023-05-14T20:04:34.812Z,69.76
2023-05-14T20:07:01.504Z,70.34
2023-05-14T20:09:27.850Z,70.23
2023-05-14T20:11:54.256Z,70.65
2023-05-14T20:14:20.701Z,70.40
2023-05-14T20:16:48.742Z,70.78
2023-05-14T20:19:16.216Z,70.49
2023-05-14T20:21:42.860Z,71.11
2023-05-14T20:24:09.190Z,71.64
2023-05-14T20:26:35.764Z,71.53
2023-05-14T20:29:02.109Z,72.77
2023-05-14T20:31:28.700Z,72.61
2023-05-14T20:33:55.374Z,72.51
2023-05-14T20:36:22.236Z,72.11
2023-05-14T20:38:48.715Z,72.66
2023-05-14T20:41:15.357Z,72.64
2023-05-14T20:43:41.690Z,73.32
2023-05-14T20:46:08.990Z,72.85
2023-05-14T20:48:35.538Z,73.15
2023-05-14T20:51:04.690Z,73.12
2023-05-14T20:53:31.092Z,72.84
2023-05-14T20:55:58.869Z,73.80
2023-05-14T20:58:25.421Z,73.69
2023-05-14T21:00:51.835Z,73.42
2023-05-14T21:03:18.444Z,74.35
2023-05-14T21:05:44.870Z,73.73
2023-05-14T21:08:11.281Z,74.71
2023-05-14T21:10:37.732Z,73.97
2023-05-14T21:13:07.352Z,73.93
2023-05-14T21:15:33.864Z,74.44
2023-05-14T21:18:01.823Z,74.35
2023-05-14T21:20:28.229Z,74.55
2023-05-14T21:22:54.604Z,74.97
2023-05-14T21:25:21.025Z,74.69
2023-05-14T21:27:47.405Z,74.30
2023-05-14T21:30:14.087Z,73.89
2023-05-14T21:32:40.485Z,74.73
2023-05-14T21:35:07.413Z,74.88
2023-05-14T21:37:33.774Z,74.85
2023-05-14T21:40:00.244Z,75.38
2023-05-14T21:42:26.626Z,75.32
2023-05-14T21:44:53.024Z,76.01
2023-05-14T21:47:20.983Z,75.94
2023-05-14T21:49:47.337Z,75.95
2023-05-14T21:52:14.069Z,75.72
2023-05-14T21:54:40.432Z,76.22
2023-05-14T21:57:06.957Z,76.16
2023-05-14T21:59:33.601Z,75.92
2023-05-14T22:04:29.148Z,76.00
2023-05-14T22:06:55.813Z,76.07
2023-05-14T22:09:22.198Z,77.30
2023-05-14T22:11:48.594Z,76.76
2023-05-14T22:14:14.975Z,76.97
2023-05-14T22:16:41.405Z,77.07
2023-05-14T22:19:08.065Z,77.43
2023-05-14T22:21:34.508Z,76.64
2023-05-14T22:24:00.938Z,77.02
2023-05-14T22:26:27.338Z,78.20
2023-05-14T22:28:53.736Z,77.74
2023-05-14T22:31:20.161Z,77.40
2023-05-14T22:33:46.633Z,78.11
2023-05-14T22:36:13.091Z,77.89
2023-05-14T22:38:41.118Z,77.87
2023-05-14T22:41:07.505Z,77.92
2023-05-14T22:43:33.874Z,77.87
2023-05-14T22:46:00.450Z,78.20
2023-05-14T22:48:26.917Z,78.20
2023-05-14T22:50:53.328Z,78.31
2023-05-14T22:53:19.707Z,78.76
2023-05-14T22:55:46.133Z,78.31
2023-05-14T22:58:12.512Z,77.85
2023-05-14T23:00:38.833Z,77.96
2023-05-14T23:03:05.337Z,78.10
2023-05-14T23:05:31.676Z,77.62
2023-05-14T23:07:58.046Z,77.72
2023-05-14T23:10:24.543Z,78.47
2023-05-14T23:12:50.903Z,78.53
2023-05-14T23:15:17.225Z,78.41
2023-05-14T23:17:43.631Z,78.55
2023-05-14T23:20:13.427Z,78.61
2023-05-14T23:22:40.678Z,79.00
2023-05-14T23:25:07.695Z,79.13
2023-05-14T23:27:35.335Z,79.03
2023-05-14T23:30:03.120Z,79.42
2023-05-14T23:32:29.727Z,80.10
2023-05-14T23:34:56.145Z,79.76
2023-05-14T23:37:23.198Z,79.23
2023-05-14T23:39:49.832Z,79.97
2023-05-14T23:42:16.192Z,80.48
2023-05-14T23:44:42.609Z,80.43
2023-05-14T23:47:09.288Z,80.05
2023-05-14T23:49:35.863Z,79.81
2023-05-14T23:52:02.357Z,80.36
2023-05-14T23:54:28.773Z,80.81
2023-05-14T23:56:55.326Z,80.84
2023-05-14T23:59:22.358Z,80.81
